sensor_id;sensor_type;location;lat;lon;timestamp;P1;durP1;ratioP1;P2;durP2;ratioP2
20241;SDS011;10279;46.388;8.116;2023-02-23T00:02:05;11.17;;;7.30;;
20241;SDS011;10279;46.388;8.116;2023-02-23T00:04:33;9.53;;;6.47;;
20241;SDS011;10279;46.388;8.116;2023-02-23T00:07:01;9.83;;;6.60;;
20241;SDS011;10279;46.388;8.116;2023-02-23T00:09:28;11.83;;;6.50;;
20241;SDS011;10279;46.388;8.116;2023-02-23T00:12:02;8.63;;;6.13;;
20241;SDS011;10279;46.388;8.116;2023-02-23T00:14:34;8.53;;;5.80;;
20241;SDS011;10279;46.388;8.116;2023-02-23T00:17:03;7.37;;;5.83;;
20241;SDS011;10279;46.388;8.116;2023-02-23T00:19:30;9.70;;;6.10;;
20241;SDS011;10279;46.388;8.116;2023-02-23T00:21:58;8.20;;;5.77;;
20241;SDS011;10279;46.388;8.116;2023-02-23T00:24:26;12.43;;;7.53;;
20241;SDS011;10279;46.388;8.116;2023-02-23T00:26:55;7.17;;;5.67;;
20241;SDS011;10279;46.388;8.116;2023-02-23T00:29:22;7.77;;;5.13;;
20241;SDS011;10279;46.388;8.116;2023-02-23T00:31:53;10.30;;;6.10;;
20241;SDS011;10279;46.388;8.116;2023-02-23T00:34:21;11.47;;;5.90;;
20241;SDS011;10279;46.388;8.116;2023-02-23T00:36:50;6.73;;;5.13;;
20241;SDS011;10279;46.388;8.116;2023-02-23T00:39:20;9.93;;;5.57;;
20241;SDS011;10279;46.388;8.116;2023-02-23T00:41:51;7.43;;;5.60;;
20241;SDS011;10279;46.388;8.116;2023-02-23T00:44:19;8.57;;;6.27;;
20241;SDS011;10279;46.388;8.116;2023-02-23T00:46:47;9.90;;;5.43;;
20241;SDS011;10279;46.388;8.116;2023-02-23T00:49:17;8.80;;;5.23;;
20241;SDS011;10279;46.388;8.116;2023-02-23T00:51:45;9.73;;;5.83;;
20241;SDS011;10279;46.388;8.116;2023-02-23T00:54:16;8.50;;;5.30;;
20241;SDS011;10279;46.388;8.116;2023-02-23T00:56:43;9.93;;;5.40;;
20241;SDS011;10279;46.388;8.116;2023-02-23T00:59:11;7.83;;;4.87;;
20241;SDS011;10279;46.388;8.116;2023-02-23T01:01:40;8.73;;;5.80;;
20241;SDS011;10279;46.388;8.116;2023-02-23T01:04:08;10.17;;;5.70;;
20241;SDS011;10279;46.388;8.116;2023-02-23T01:06:36;8.50;;;5.43;;
20241;SDS011;10279;46.388;8.116;2023-02-23T01:09:07;8.63;;;5.63;;
20241;SDS011;10279;46.388;8.116;2023-02-23T01:11:35;9.20;;;5.60;;
20241;SDS011;10279;46.388;8.116;2023-02-23T01:14:02;8.40;;;4.87;;
20241;SDS011;10279;46.388;8.116;2023-02-23T01:16:31;7.43;;;5.00;;
20241;SDS011;10279;46.388;8.116;2023-02-23T01:19:00;8.13;;;5.13;;
20241;SDS011;10279;46.388;8.116;2023-02-23T01:21:33;8.00;;;5.00;;
20241;SDS011;10279;46.388;8.116;2023-02-23T01:24:01;7.90;;;5.33;;
20241;SDS011;10279;46.388;8.116;2023-02-23T01:26:32;7.77;;;5.93;;
20241;SDS011;10279;46.388;8.116;2023-02-23T01:29:05;8.53;;;5.03;;
20241;SDS011;10279;46.388;8.116;2023-02-23T01:31:34;7.70;;;4.93;;
20241;SDS011;10279;46.388;8.116;2023-02-23T01:34:03;8.27;;;5.57;;
20241;SDS011;10279;46.388;8.116;2023-02-23T01:36:35;7.07;;;5.27;;
20241;SDS011;10279;46.388;8.116;2023-02-23T01:39:05;6.23;;;4.60;;
20241;SDS011;10279;46.388;8.116;2023-02-23T01:41:34;9.90;;;5.00;;
20241;SDS011;10279;46.388;8.116;2023-02-23T01:44:06;8.10;;;5.60;;
20241;SDS011;10279;46.388;8.116;2023-02-23T01:46:34;8.23;;;5.40;;
20241;SDS011;10279;46.388;8.116;2023-02-23T01:49:05;8.77;;;5.20;;
20241;SDS011;10279;46.388;8.116;2023-02-23T01:51:36;9.43;;;6.03;;
20241;SDS011;10279;46.388;8.116;2023-02-23T01:57:04;7.50;;;4.90;;
20241;SDS011;10279;46.388;8.116;2023-02-23T01:59:37;7.00;;;4.97;;
20241;SDS011;10279;46.388;8.116;2023-02-23T02:02:05;7.17;;;4.73;;
20241;SDS011;10279;46.388;8.116;2023-02-23T02:04:33;7.87;;;4.80;;
20241;SDS011;10279;46.388;8.116;2023-02-23T02:07:17;8.57;;;5.13;;
20241;SDS011;10279;46.388;8.116;2023-02-23T02:09:46;7.47;;;4.97;;
20241;SDS011;10279;46.388;8.116;2023-02-23T02:12:32;9.60;;;5.60;;
20241;SDS011;10279;46.388;8.116;2023-02-23T02:15:00;5.57;;;4.23;;
20241;SDS011;10279;46.388;8.116;2023-02-23T02:22:45;8.67;;;4.93;;
20241;SDS011;10279;46.388;8.116;2023-02-23T02:35:45;8.43;;;4.87;;
20241;SDS011;10279;46.388;8.116;2023-02-23T02:43:34;7.17;;;4.87;;
20241;SDS011;10279;46.388;8.116;2023-02-23T02:46:27;7.10;;;5.03;;
20241;SDS011;10279;46.388;8.116;2023-02-23T02:49:06;6.83;;;5.00;;
20241;SDS011;10279;46.388;8.116;2023-02-23T02:51:51;6.47;;;4.37;;
20241;SDS011;10279;46.388;8.116;2023-02-23T02:54:39;8.97;;;5.10;;
20241;SDS011;10279;46.388;8.116;2023-02-23T02:57:07;7.70;;;5.63;;
20241;SDS011;10279;46.388;8.116;2023-02-23T02:59:45;6.47;;;4.93;;
20241;SDS011;10279;46.388;8.116;2023-02-23T03:02:32;8.70;;;5.50;;
20241;SDS011;10279;46.388;8.116;2023-02-23T03:05:24;7.60;;;4.93;;
20241;SDS011;10279;46.388;8.116;2023-02-23T03:08:27;7.40;;;4.90;;
20241;SDS011;10279;46.388;8.116;2023-02-23T03:11:18;10.00;;;5.13;;
20241;SDS011;10279;46.388;8.116;2023-02-23T03:14:14;7.73;;;5.13;;
20241;SDS011;10279;46.388;8.116;2023-02-23T03:22:38;9.30;;;4.90;;
20241;SDS011;10279;46.388;8.116;2023-02-23T03:25:34;7.90;;;5.20;;
20241;SDS011;10279;46.388;8.116;2023-02-23T03:28:31;9.07;;;5.10;;
20241;SDS011;10279;46.388;8.116;2023-02-23T03:31:22;8.77;;;5.27;;
20241;SDS011;10279;46.388;8.116;2023-02-23T03:36:59;7.57;;;4.63;;
20241;SDS011;10279;46.388;8.116;2023-02-23T03:39:50;6.73;;;4.93;;
20241;SDS011;10279;46.388;8.116;2023-02-23T03:42:39;7.60;;;5.23;;
20241;SDS011;10279;46.388;8.116;2023-02-23T03:45:26;5.93;;;4.60;;
20241;SDS011;10279;46.388;8.116;2023-02-23T03:48:14;7.37;;;4.60;;
20241;SDS011;10279;46.388;8.116;2023-02-23T03:51:02;7.27;;;4.67;;
20241;SDS011;10279;46.388;8.116;2023-02-23T03:53:51;7.40;;;4.87;;
20241;SDS011;10279;46.388;8.116;2023-02-23T03:56:39;9.53;;;5.03;;
20241;SDS011;10279;46.388;8.116;2023-02-23T03:59:29;7.33;;;4.87;;
20241;SDS011;10279;46.388;8.116;2023-02-23T04:02:16;6.27;;;4.50;;
20241;SDS011;10279;46.388;8.116;2023-02-23T04:04:57;6.73;;;4.40;;
20241;SDS011;10279;46.388;8.116;2023-02-23T04:07:46;7.90;;;4.60;;
20241;SDS011;10279;46.388;8.116;2023-02-23T04:10:32;6.23;;;4.33;;
20241;SDS011;10279;46.388;8.116;2023-02-23T04:13:21;7.53;;;5.23;;
20241;SDS011;10279;46.388;8.116;2023-02-23T04:16:08;6.57;;;4.80;;
20241;SDS011;10279;46.388;8.116;2023-02-23T04:18:37;6.80;;;4.27;;
20241;SDS011;10279;46.388;8.116;2023-02-23T04:21:05;9.67;;;5.30;;
20241;SDS011;10279;46.388;8.116;2023-02-23T04:23:33;7.20;;;4.73;;
20241;SDS011;10279;46.388;8.116;2023-02-23T04:26:01;6.07;;;4.67;;
20241;SDS011;10279;46.388;8.116;2023-02-23T04:28:30;6.17;;;4.47;;
20241;SDS011;10279;46.388;8.116;2023-02-23T04:30:57;9.10;;;5.07;;
20241;SDS011;10279;46.388;8.116;2023-02-23T04:33:25;8.13;;;5.27;;
20241;SDS011;10279;46.388;8.116;2023-02-23T04:35:53;7.30;;;5.00;;
20241;SDS011;10279;46.388;8.116;2023-02-23T04:38:21;8.70;;;4.97;;
20241;SDS011;10279;46.388;8.116;2023-02-23T04:40:48;7.10;;;4.97;;
20241;SDS011;10279;46.388;8.116;2023-02-23T04:43:16;6.57;;;4.50;;
20241;SDS011;10279;46.388;8.116;2023-02-23T04:45:43;7.53;;;5.17;;
20241;SDS011;10279;46.388;8.116;2023-02-23T04:48:11;8.80;;;5.00;;
20241;SDS011;10279;46.388;8.116;2023-02-23T04:50:38;7.20;;;4.73;;
20241;SDS011;10279;46.388;8.116;2023-02-23T04:53:06;6.73;;;4.80;;
20241;SDS011;10279;46.388;8.116;2023-02-23T04:55:33;8.93;;;4.60;;
20241;SDS011;10279;46.388;8.116;2023-02-23T04:58:01;7.10;;;4.90;;
20241;SDS011;10279;46.388;8.116;2023-02-23T05:00:29;7.43;;;4.83;;
20241;SDS011;10279;46.388;8.116;2023-02-23T05:02:58;7.30;;;5.33;;
20241;SDS011;10279;46.388;8.116;2023-02-23T05:05:26;9.57;;;5.87;;
20241;SDS011;10279;46.388;8.116;2023-02-23T05:07:53;8.07;;;5.10;;
20241;SDS011;10279;46.388;8.116;2023-02-23T05:10:21;8.10;;;5.40;;
20241;SDS011;10279;46.388;8.116;2023-02-23T05:12:48;9.00;;;5.53;;
20241;SDS011;10279;46.388;8.116;2023-02-23T05:15:15;8.37;;;4.67;;
20241;SDS011;10279;46.388;8.116;2023-02-23T05:17:43;7.17;;;4.83;;
20241;SDS011;10279;46.388;8.116;2023-02-23T05:20:11;9.03;;;4.83;;
20241;SDS011;10279;46.388;8.116;2023-02-23T05:22:39;6.77;;;4.57;;
20241;SDS011;10279;46.388;8.116;2023-02-23T05:25:07;6.37;;;4.33;;
20241;SDS011;10279;46.388;8.116;2023-02-23T05:27:35;6.53;;;4.50;;
20241;SDS011;10279;46.388;8.116;2023-02-23T05:30:04;7.03;;;4.67;;
20241;SDS011;10279;46.388;8.116;2023-02-23T05:32:33;8.10;;;4.97;;
20241;SDS011;10279;46.388;8.116;2023-02-23T05:35:01;9.37;;;4.80;;
20241;SDS011;10279;46.388;8.116;2023-02-23T05:37:28;6.43;;;4.70;;
20241;SDS011;10279;46.388;8.116;2023-02-23T05:39:55;11.53;;;5.23;;
20241;SDS011;10279;46.388;8.116;2023-02-23T05:42:25;8.07;;;4.43;;
20241;SDS011;10279;46.388;8.116;2023-02-23T05:44:52;5.63;;;4.37;;
20241;SDS011;10279;46.388;8.116;2023-02-23T05:47:20;5.57;;;4.33;;
20241;SDS011;10279;46.388;8.116;2023-02-23T05:49:47;10.00;;;4.80;;
20241;SDS011;10279;46.388;8.116;2023-02-23T05:52:15;9.60;;;4.77;;
20241;SDS011;10279;46.388;8.116;2023-02-23T05:54:43;6.23;;;4.50;;
20241;SDS011;10279;46.388;8.116;2023-02-23T05:57:11;8.40;;;5.97;;
20241;SDS011;10279;46.388;8.116;2023-02-23T05:59:39;7.23;;;4.70;;
20241;SDS011;10279;46.388;8.116;2023-02-23T06:02:06;7.67;;;4.73;;
20241;SDS011;10279;46.388;8.116;2023-02-23T06:04:34;5.77;;;4.33;;
20241;SDS011;10279;46.388;8.116;2023-02-23T06:07:02;8.77;;;5.03;;
20241;SDS011;10279;46.388;8.116;2023-02-23T06:09:29;7.40;;;4.47;;
20241;SDS011;10279;46.388;8.116;2023-02-23T06:11:57;7.10;;;4.83;;
20241;SDS011;10279;46.388;8.116;2023-02-23T06:14:28;6.57;;;4.40;;
20241;SDS011;10279;46.388;8.116;2023-02-23T06:16:56;7.40;;;4.80;;
20241;SDS011;10279;46.388;8.116;2023-02-23T06:19:23;6.33;;;4.27;;
20241;SDS011;10279;46.388;8.116;2023-02-23T06:21:51;8.37;;;4.00;;
20241;SDS011;10279;46.388;8.116;2023-02-23T06:24:18;5.37;;;3.77;;
20241;SDS011;10279;46.388;8.116;2023-02-23T06:26:46;5.67;;;4.13;;
20241;SDS011;10279;46.388;8.116;2023-02-23T06:29:13;7.13;;;3.67;;
20241;SDS011;10279;46.388;8.116;2023-02-23T06:31:41;5.70;;;3.70;;
20241;SDS011;10279;46.388;8.116;2023-02-23T06:34:09;6.17;;;4.03;;
20241;SDS011;10279;46.388;8.116;2023-02-23T06:36:36;5.93;;;3.67;;
20241;SDS011;10279;46.388;8.116;2023-02-23T06:39:04;6.90;;;4.43;;
20241;SDS011;10279;46.388;8.116;2023-02-23T06:41:31;6.57;;;3.93;;
20241;SDS011;10279;46.388;8.116;2023-02-23T06:44:02;4.93;;;3.80;;
20241;SDS011;10279;46.388;8.116;2023-02-23T06:46:30;6.60;;;3.87;;
20241;SDS011;10279;46.388;8.116;2023-02-23T06:48:58;5.97;;;4.30;;
20241;SDS011;10279;46.388;8.116;2023-02-23T06:51:26;6.70;;;4.97;;
20241;SDS011;10279;46.388;8.116;2023-02-23T06:53:53;12.67;;;5.70;;
20241;SDS011;10279;46.388;8.116;2023-02-23T06:56:21;7.10;;;5.00;;
20241;SDS011;10279;46.388;8.116;2023-02-23T06:58:48;6.40;;;4.33;;
20241;SDS011;10279;46.388;8.116;2023-02-23T07:01:16;6.73;;;4.73;;
20241;SDS011;10279;46.388;8.116;2023-02-23T07:03:45;5.13;;;4.20;;
20241;SDS011;10279;46.388;8.116;2023-02-23T07:06:13;6.70;;;4.70;;
20241;SDS011;10279;46.388;8.116;2023-02-23T07:08:40;7.10;;;4.53;;
20241;SDS011;10279;46.388;8.116;2023-02-23T07:11:08;8.40;;;4.87;;
20241;SDS011;10279;46.388;8.116;2023-02-23T07:13:36;6.10;;;3.93;;
20241;SDS011;10279;46.388;8.116;2023-02-23T07:16:03;8.33;;;5.80;;
20241;SDS011;10279;46.388;8.116;2023-02-23T07:18:31;7.13;;;5.60;;
20241;SDS011;10279;46.388;8.116;2023-02-23T07:20:59;9.27;;;5.23;;
20241;SDS011;10279;46.388;8.116;2023-02-23T07:23:26;7.67;;;4.87;;
20241;SDS011;10279;46.388;8.116;2023-02-23T07:25:54;7.47;;;3.97;;
20241;SDS011;10279;46.388;8.116;2023-02-23T07:28:26;5.67;;;3.90;;
20241;SDS011;10279;46.388;8.116;2023-02-23T07:30:54;7.72;;;5.00;;
20241;SDS011;10279;46.388;8.116;2023-02-23T07:33:23;9.40;;;5.70;;
20241;SDS011;10279;46.388;8.116;2023-02-23T07:35:50;13.63;;;7.90;;
20241;SDS011;10279;46.388;8.116;2023-02-23T07:38:17;12.97;;;6.87;;
20241;SDS011;10279;46.388;8.116;2023-02-23T07:40:45;9.80;;;5.90;;
20241;SDS011;10279;46.388;8.116;2023-02-23T07:43:12;9.20;;;5.00;;
20241;SDS011;10279;46.388;8.116;2023-02-23T07:45:39;5.83;;;4.70;;
20241;SDS011;10279;46.388;8.116;2023-02-23T07:48:07;11.13;;;5.07;;
20241;SDS011;10279;46.388;8.116;2023-02-23T07:50:35;7.23;;;4.93;;
20241;SDS011;10279;46.388;8.116;2023-02-23T07:53:02;7.00;;;4.77;;
20241;SDS011;10279;46.388;8.116;2023-02-23T07:55:30;7.07;;;4.47;;
20241;SDS011;10279;46.388;8.116;2023-02-23T07:57:57;5.73;;;4.67;;
20241;SDS011;10279;46.388;8.116;2023-02-23T08:00:25;7.07;;;4.83;;
20241;SDS011;10279;46.388;8.116;2023-02-23T08:02:52;5.97;;;4.63;;
20241;SDS011;10279;46.388;8.116;2023-02-23T08:05:19;7.27;;;4.73;;
20241;SDS011;10279;46.388;8.116;2023-02-23T08:07:47;6.30;;;4.13;;
20241;SDS011;10279;46.388;8.116;2023-02-23T08:10:14;7.13;;;4.43;;
20241;SDS011;10279;46.388;8.116;2023-02-23T08:12:42;8.40;;;3.90;;
20241;SDS011;10279;46.388;8.116;2023-02-23T08:15:09;6.90;;;4.10;;
20241;SDS011;10279;46.388;8.116;2023-02-23T08:17:37;7.13;;;4.07;;
20241;SDS011;10279;46.388;8.116;2023-02-23T08:20:05;6.77;;;4.93;;
20241;SDS011;10279;46.388;8.116;2023-02-23T08:22:32;6.63;;;4.77;;
20241;SDS011;10279;46.388;8.116;2023-02-23T08:25:14;7.67;;;4.27;;
20241;SDS011;10279;46.388;8.116;2023-02-23T08:27:42;5.07;;;3.60;;
20241;SDS011;10279;46.388;8.116;2023-02-23T08:30:09;5.97;;;4.20;;
20241;SDS011;10279;46.388;8.116;2023-02-23T08:32:37;18.23;;;9.70;;
20241;SDS011;10279;46.388;8.116;2023-02-23T08:35:05;28.30;;;16.47;;
20241;SDS011;10279;46.388;8.116;2023-02-23T08:37:33;17.10;;;10.60;;
20241;SDS011;10279;46.388;8.116;2023-02-23T08:40:00;9.43;;;5.53;;
20241;SDS011;10279;46.388;8.116;2023-02-23T08:42:30;6.23;;;4.30;;
20241;SDS011;10279;46.388;8.116;2023-02-23T08:44:57;7.40;;;4.60;;
20241;SDS011;10279;46.388;8.116;2023-02-23T08:47:26;5.30;;;3.90;;
20241;SDS011;10279;46.388;8.116;2023-02-23T08:49:55;5.93;;;4.07;;
20241;SDS011;10279;46.388;8.116;2023-02-23T08:52:22;6.50;;;4.77;;
20241;SDS011;10279;46.388;8.116;2023-02-23T08:54:50;6.17;;;4.10;;
20241;SDS011;10279;46.388;8.116;2023-02-23T08:57:18;6.93;;;4.00;;
20241;SDS011;10279;46.388;8.116;2023-02-23T08:59:45;6.80;;;4.47;;
20241;SDS011;10279;46.388;8.116;2023-02-23T09:02:13;6.60;;;3.67;;
20241;SDS011;10279;46.388;8.116;2023-02-23T09:04:41;5.33;;;3.93;;
20241;SDS011;10279;46.388;8.116;2023-02-23T09:07:12;5.63;;;3.60;;
20241;SDS011;10279;46.388;8.116;2023-02-23T09:09:40;6.57;;;3.93;;
20241;SDS011;10279;46.388;8.116;2023-02-23T09:12:07;4.03;;;3.07;;
20241;SDS011;10279;46.388;8.116;2023-02-23T09:14:35;3.93;;;2.93;;
20241;SDS011;10279;46.388;8.116;2023-02-23T09:17:02;6.10;;;3.70;;
20241;SDS011;10279;46.388;8.116;2023-02-23T09:19:29;4.43;;;3.37;;
20241;SDS011;10279;46.388;8.116;2023-02-23T09:21:57;8.20;;;5.60;;
20241;SDS011;10279;46.388;8.116;2023-02-23T09:24:24;6.60;;;4.03;;
20241;SDS011;10279;46.388;8.116;2023-02-23T09:26:51;6.87;;;4.20;;
20241;SDS011;10279;46.388;8.116;2023-02-23T09:29:19;5.20;;;4.00;;
20241;SDS011;10279;46.388;8.116;2023-02-23T09:31:46;8.03;;;3.43;;
20241;SDS011;10279;46.388;8.116;2023-02-23T09:34:16;3.70;;;2.97;;
20241;SDS011;10279;46.388;8.116;2023-02-23T09:36:44;4.53;;;3.03;;
20241;SDS011;10279;46.388;8.116;2023-02-23T09:39:11;3.83;;;3.03;;
20241;SDS011;10279;46.388;8.116;2023-02-23T09:41:48;3.30;;;2.57;;
20241;SDS011;10279;46.388;8.116;2023-02-23T09:47:12;3.80;;;2.90;;
20241;SDS011;10279;46.388;8.116;2023-02-23T09:49:45;2.67;;;1.87;;
20241;SDS011;10279;46.388;8.116;2023-02-23T09:52:16;5.33;;;2.20;;
20241;SDS011;10279;46.388;8.116;2023-02-23T09:54:44;3.60;;;1.97;;
20241;SDS011;10279;46.388;8.116;2023-02-23T09:57:17;4.37;;;2.20;;
20241;SDS011;10279;46.388;8.116;2023-02-23T09:59:46;6.00;;;2.60;;
20241;SDS011;10279;46.388;8.116;2023-02-23T10:02:51;3.53;;;2.50;;
20241;SDS011;10279;46.388;8.116;2023-02-23T10:05:07;3.77;;;2.30;;
20241;SDS011;10279;46.388;8.116;2023-02-23T10:07:45;3.90;;;1.90;;
20241;SDS011;10279;46.388;8.116;2023-02-23T10:10:21;3.30;;;1.90;;
20241;SDS011;10279;46.388;8.116;2023-02-23T10:18:12;3.37;;;2.00;;
20241;SDS011;10279;46.388;8.116;2023-02-23T10:20:47;2.53;;;1.67;;
20241;SDS011;10279;46.388;8.116;2023-02-23T10:23:18;2.00;;;1.70;;
20241;SDS011;10279;46.388;8.116;2023-02-23T10:25:48;2.67;;;1.73;;
20241;SDS011;10279;46.388;8.116;2023-02-23T10:28:18;3.90;;;1.70;;
20241;SDS011;10279;46.388;8.116;2023-02-23T10:30:48;1.90;;;1.30;;
20241;SDS011;10279;46.388;8.116;2023-02-23T10:33:27;5.30;;;1.87;;
20241;SDS011;10279;46.388;8.116;2023-02-23T10:36:12;3.53;;;1.67;;
20241;SDS011;10279;46.388;8.116;2023-02-23T10:38:41;4.20;;;1.80;;
20241;SDS011;10279;46.388;8.116;2023-02-23T10:41:09;2.10;;;1.47;;
20241;SDS011;10279;46.388;8.116;2023-02-23T10:43:40;2.60;;;1.53;;
20241;SDS011;10279;46.388;8.116;2023-02-23T10:46:09;2.33;;;1.60;;
20241;SDS011;10279;46.388;8.116;2023-02-23T10:48:38;3.43;;;1.37;;
20241;SDS011;10279;46.388;8.116;2023-02-23T10:51:13;5.23;;;1.50;;
20241;SDS011;10279;46.388;8.116;2023-02-23T10:53:43;2.73;;;1.30;;
20241;SDS011;10279;46.388;8.116;2023-02-23T10:56:14;3.07;;;1.50;;
20241;SDS011;10279;46.388;8.116;2023-02-23T10:58:42;4.13;;;1.47;;
20241;SDS011;10279;46.388;8.116;2023-02-23T11:01:16;3.43;;;1.40;;
20241;SDS011;10279;46.388;8.116;2023-02-23T11:03:57;4.17;;;1.57;;
20241;SDS011;10279;46.388;8.116;2023-02-23T11:06:39;3.73;;;1.70;;
20241;SDS011;10279;46.388;8.116;2023-02-23T11:09:24;2.27;;;1.60;;
20241;SDS011;10279;46.388;8.116;2023-02-23T11:12:18;5.50;;;1.53;;
20241;SDS011;10279;46.388;8.116;2023-02-23T11:14:52;5.23;;;1.30;;
20241;SDS011;10279;46.388;8.116;2023-02-23T11:17:22;5.47;;;1.37;;
20241;SDS011;10279;46.388;8.116;2023-02-23T11:19:50;8.07;;;1.40;;
20241;SDS011;10279;46.388;8.116;2023-02-23T11:22:19;2.00;;;1.30;;
20241;SDS011;10279;46.388;8.116;2023-02-23T11:24:48;6.90;;;2.10;;
20241;SDS011;10279;46.388;8.116;2023-02-23T11:27:21;5.00;;;1.47;;
20241;SDS011;10279;46.388;8.116;2023-02-23T11:29:50;4.40;;;1.20;;
20241;SDS011;10279;46.388;8.116;2023-02-23T11:32:20;2.73;;;1.30;;
20241;SDS011;10279;46.388;8.116;2023-02-23T11:37:37;2.23;;;1.13;;
20241;SDS011;10279;46.388;8.116;2023-02-23T11:40:26;4.37;;;1.33;;
20241;SDS011;10279;46.388;8.116;2023-02-23T11:43:06;3.20;;;1.10;;
20241;SDS011;10279;46.388;8.116;2023-02-23T11:45:46;4.67;;;1.00;;
20241;SDS011;10279;46.388;8.116;2023-02-23T11:48:35;2.33;;;1.10;;
20241;SDS011;10279;46.388;8.116;2023-02-23T11:51:08;5.00;;;1.30;;
20241;SDS011;10279;46.388;8.116;2023-02-23T11:53:37;5.70;;;1.50;;
20241;SDS011;10279;46.388;8.116;2023-02-23T11:56:10;5.18;;;1.30;;
20241;SDS011;10279;46.388;8.116;2023-02-23T11:58:50;2.90;;;1.40;;
20241;SDS011;10279;46.388;8.116;2023-02-23T12:01:22;5.53;;;1.50;;
20241;SDS011;10279;46.388;8.116;2023-02-23T12:04:01;6.68;;;2.15;;
20241;SDS011;10279;46.388;8.116;2023-02-23T12:06:36;6.25;;;1.73;;
20241;SDS011;10279;46.388;8.116;2023-02-23T12:09:48;7.55;;;1.80;;
20241;SDS011;10279;46.388;8.116;2023-02-23T12:12:11;3.90;;;1.43;;
20241;SDS011;10279;46.388;8.116;2023-02-23T12:17:17;3.07;;;1.47;;
20241;SDS011;10279;46.388;8.116;2023-02-23T12:20:00;6.13;;;1.63;;
20241;SDS011;10279;46.388;8.116;2023-02-23T12:22:34;6.93;;;2.43;;
20241;SDS011;10279;46.388;8.116;2023-02-23T12:27:52;3.73;;;2.20;;
20241;SDS011;10279;46.388;8.116;2023-02-23T12:30:55;5.57;;;1.23;;
20241;SDS011;10279;46.388;8.116;2023-02-23T12:33:47;4.97;;;1.57;;
20241;SDS011;10279;46.388;8.116;2023-02-23T12:36:26;3.97;;;1.77;;
20241;SDS011;10279;46.388;8.116;2023-02-23T12:39:20;3.27;;;1.40;;
20241;SDS011;10279;46.388;8.116;2023-02-23T12:42:13;7.27;;;1.70;;
20241;SDS011;10279;46.388;8.116;2023-02-23T12:44:43;7.13;;;1.43;;
20241;SDS011;10279;46.388;8.116;2023-02-23T12:50:10;5.67;;;1.27;;
20241;SDS011;10279;46.388;8.116;2023-02-23T12:52:50;3.63;;;1.37;;
20241;SDS011;10279;46.388;8.116;2023-02-23T12:55:29;3.50;;;1.43;;
20241;SDS011;10279;46.388;8.116;2023-02-23T12:58:23;2.20;;;1.30;;
20241;SDS011;10279;46.388;8.116;2023-02-23T13:00:59;4.10;;;1.30;;
20241;SDS011;10279;46.388;8.116;2023-02-23T13:06:30;4.23;;;1.30;;
20241;SDS011;10279;46.388;8.116;2023-02-23T13:14:55;1.97;;;1.33;;
20241;SDS011;10279;46.388;8.116;2023-02-23T13:20:25;4.90;;;1.30;;
20241;SDS011;10279;46.388;8.116;2023-02-23T13:22:56;3.70;;;1.33;;
20241;SDS011;10279;46.388;8.116;2023-02-23T13:28:18;4.67;;;1.20;;
20241;SDS011;10279;46.388;8.116;2023-02-23T13:30:54;3.40;;;1.40;;
20241;SDS011;10279;46.388;8.116;2023-02-23T13:33:26;2.67;;;1.00;;
20241;SDS011;10279;46.388;8.116;2023-02-23T13:36:09;5.10;;;1.23;;
20241;SDS011;10279;46.388;8.116;2023-02-23T13:43:59;4.10;;;1.33;;
20241;SDS011;10279;46.388;8.116;2023-02-23T13:46:47;8.43;;;1.57;;
20241;SDS011;10279;46.388;8.116;2023-02-23T13:52:08;3.73;;;1.20;;
20241;SDS011;10279;46.388;8.116;2023-02-23T13:54:55;5.23;;;1.20;;
20241;SDS011;10279;46.388;8.116;2023-02-23T13:57:29;4.70;;;1.30;;
20241;SDS011;10279;46.388;8.116;2023-02-23T13:59:57;4.83;;;1.27;;
20241;SDS011;10279;46.388;8.116;2023-02-23T14:02:38;2.77;;;1.33;;
20241;SDS011;10279;46.388;8.116;2023-02-23T14:05:27;5.17;;;1.53;;
20241;SDS011;10279;46.388;8.116;2023-02-23T14:07:55;2.53;;;1.30;;
20241;SDS011;10279;46.388;8.116;2023-02-23T14:10:28;3.37;;;1.47;;
20241;SDS011;10279;46.388;8.116;2023-02-23T14:15:49;6.83;;;2.40;;
20241;SDS011;10279;46.388;8.116;2023-02-23T14:21:34;3.53;;;2.17;;
20241;SDS011;10279;46.388;8.116;2023-02-23T14:24:15;5.77;;;2.70;;
20241;SDS011;10279;46.388;8.116;2023-02-23T14:30:42;5.87;;;2.33;;
20241;SDS011;10279;46.388;8.116;2023-02-23T14:32:52;8.30;;;2.83;;
20241;SDS011;10279;46.388;8.116;2023-02-23T14:38:00;5.03;;;2.50;;
20241;SDS011;10279;46.388;8.116;2023-02-23T14:40:32;8.13;;;2.93;;
20241;SDS011;10279;46.388;8.116;2023-02-23T14:43:27;4.60;;;2.63;;
20241;SDS011;10279;46.388;8.116;2023-02-23T14:46:26;5.63;;;2.97;;
20241;SDS011;10279;46.388;8.116;2023-02-23T14:48:55;4.67;;;2.10;;
20241;SDS011;10279;46.388;8.116;2023-02-23T14:51:32;6.73;;;2.90;;
20241;SDS011;10279;46.388;8.116;2023-02-23T14:57:05;5.60;;;2.70;;
20241;SDS011;10279;46.388;8.116;2023-02-23T14:59:43;3.17;;;2.17;;
20241;SDS011;10279;46.388;8.116;2023-02-23T15:02:16;4.67;;;2.60;;
20241;SDS011;10279;46.388;8.116;2023-02-23T15:04:45;4.30;;;2.60;;
20241;SDS011;10279;46.388;8.116;2023-02-23T15:07:20;5.77;;;3.30;;
20241;SDS011;10279;46.388;8.116;2023-02-23T15:12:56;5.10;;;3.00;;
20241;SDS011;10279;46.388;8.116;2023-02-23T15:15:24;4.27;;;2.80;;
20241;SDS011;10279;46.388;8.116;2023-02-23T15:17:57;6.37;;;2.87;;
20241;SDS011;10279;46.388;8.116;2023-02-23T15:20:28;6.60;;;3.37;;
20241;SDS011;10279;46.388;8.116;2023-02-23T15:23:00;6.90;;;2.97;;
20241;SDS011;10279;46.388;8.116;2023-02-23T15:25:33;7.10;;;3.10;;
20241;SDS011;10279;46.388;8.116;2023-02-23T15:31:00;5.03;;;3.17;;
20241;SDS011;10279;46.388;8.116;2023-02-23T15:33:30;6.63;;;3.27;;
20241;SDS011;10279;46.388;8.116;2023-02-23T15:38:29;4.93;;;2.83;;
20241;SDS011;10279;46.388;8.116;2023-02-23T15:41:12;5.30;;;2.70;;
20241;SDS011;10279;46.388;8.116;2023-02-23T15:43:47;17.70;;;3.70;;
20241;SDS011;10279;46.388;8.116;2023-02-23T15:46:18;5.40;;;2.77;;
20241;SDS011;10279;46.388;8.116;2023-02-23T15:48:50;5.27;;;2.60;;
20241;SDS011;10279;46.388;8.116;2023-02-23T15:51:21;3.97;;;2.65;;
20241;SDS011;10279;46.388;8.116;2023-02-23T15:54:07;5.93;;;3.00;;
20241;SDS011;10279;46.388;8.116;2023-02-23T15:56:46;8.30;;;2.63;;
20241;SDS011;10279;46.388;8.116;2023-02-23T15:59:18;4.10;;;2.58;;
20241;SDS011;10279;46.388;8.116;2023-02-23T16:01:50;6.67;;;2.63;;
20241;SDS011;10279;46.388;8.116;2023-02-23T16:04:19;6.00;;;2.88;;
20241;SDS011;10279;46.388;8.116;2023-02-23T16:06:54;7.05;;;3.38;;
20241;SDS011;10279;46.388;8.116;2023-02-23T16:09:32;6.00;;;3.25;;
20241;SDS011;10279;46.388;8.116;2023-02-23T16:12:09;9.23;;;3.40;;
20241;SDS011;10279;46.388;8.116;2023-02-23T16:20:18;5.60;;;3.20;;
20241;SDS011;10279;46.388;8.116;2023-02-23T16:23:22;7.82;;;3.30;;
20241;SDS011;10279;46.388;8.116;2023-02-23T16:26:09;7.00;;;3.20;;
20241;SDS011;10279;46.388;8.116;2023-02-23T16:28:57;5.87;;;3.53;;
20241;SDS011;10279;46.388;8.116;2023-02-23T16:31:41;6.85;;;3.60;;
20241;SDS011;10279;46.388;8.116;2023-02-23T16:37:14;8.63;;;3.63;;
20241;SDS011;10279;46.388;8.116;2023-02-23T16:39:43;5.53;;;3.57;;
20241;SDS011;10279;46.388;8.116;2023-02-23T16:42:19;7.87;;;3.13;;
20241;SDS011;10279;46.388;8.116;2023-02-23T16:44:51;8.10;;;4.00;;
20241;SDS011;10279;46.388;8.116;2023-02-23T16:49:49;7.97;;;3.90;;
20241;SDS011;10279;46.388;8.116;2023-02-23T16:52:21;5.83;;;3.83;;
20241;SDS011;10279;46.388;8.116;2023-02-23T16:54:49;6.17;;;3.73;;
20241;SDS011;10279;46.388;8.116;2023-02-23T16:57:24;6.73;;;3.80;;
20241;SDS011;10279;46.388;8.116;2023-02-23T16:59:54;6.77;;;4.43;;
20241;SDS011;10279;46.388;8.116;2023-02-23T17:02:23;8.83;;;4.00;;
20241;SDS011;10279;46.388;8.116;2023-02-23T17:04:50;8.60;;;4.10;;
20241;SDS011;10279;46.388;8.116;2023-02-23T17:07:19;8.27;;;4.63;;
20241;SDS011;10279;46.388;8.116;2023-02-23T17:09:49;9.83;;;4.60;;
20241;SDS011;10279;46.388;8.116;2023-02-23T17:12:19;6.57;;;4.17;;